Selfridge Air Natl Guard, Michigan
Current Conditions -  °F | °C
As of 11:03 PM on Sunday 23 Nov 2014 (Local Time) from KMTC Reporting Station
Light Rain Light Rain  
Wind Chill: 42°   Ceiling: 500
Heat Index: 48°   Visibility: 5mi
Dew Point: 48°   Wind: 17mph
Humidity: 100%   Direction: 110°ESE
Pressure: 29.31"   Gusts: 24mph
Location:  42.5826°N, 82.8345°W
Report Text: KMTC 240403Z AUTO 11015G21KT 5SM -RA BR BKN005 OVC013 09/09 A2931 RMK AO2
Loading
Personal Weather Stations






























Interactive Weather Map New forecast layout! Learn more

10-Day Weather Forecast

Advertisements
Track Severe Weather on mobile